sensor_id;sensor_type;location;lat;lon;timestamp;P1;durP1;ratioP1;P2;durP2;ratioP2
2201;SDS011;1107;48.654;9.250;2022-09-09T00:00:17;1.83;;;1.50;;
2201;SDS011;1107;48.654;9.250;2022-09-09T00:02:49;2.23;;;1.53;;
2201;SDS011;1107;48.654;9.250;2022-09-09T00:05:25;7.90;;;1.67;;
2201;SDS011;1107;48.654;9.250;2022-09-09T00:07:58;1.87;;;1.37;;
2201;SDS011;1107;48.654;9.250;2022-09-09T00:10:29;3.00;;;1.73;;
2201;SDS011;1107;48.654;9.250;2022-09-09T00:13:00;2.40;;;2.00;;
2201;SDS011;1107;48.654;9.250;2022-09-09T00:15:36;3.40;;;1.93;;
2201;SDS011;1107;48.654;9.250;2022-09-09T00:18:10;1.70;;;1.30;;
2201;SDS011;1107;48.654;9.250;2022-09-09T00:20:46;1.93;;;1.60;;
2201;SDS011;1107;48.654;9.250;2022-09-09T00:23:23;3.70;;;1.80;;
2201;SDS011;1107;48.654;9.250;2022-09-09T00:25:54;3.43;;;1.43;;
2201;SDS011;1107;48.654;9.250;2022-09-09T00:28:28;2.83;;;1.70;;
2201;SDS011;1107;48.654;9.250;2022-09-09T00:30:59;1.80;;;1.47;;
2201;SDS011;1107;48.654;9.250;2022-09-09T00:33:30;2.27;;;1.57;;
2201;SDS011;1107;48.654;9.250;2022-09-09T00:35:59;2.50;;;1.53;;
2201;SDS011;1107;48.654;9.250;2022-09-09T00:38:28;2.17;;;1.13;;
2201;SDS011;1107;48.654;9.250;2022-09-09T00:41:01;3.17;;;1.57;;
2201;SDS011;1107;48.654;9.250;2022-09-09T00:43:35;2.93;;;1.50;;
2201;SDS011;1107;48.654;9.250;2022-09-09T00:46:10;2.33;;;1.63;;
2201;SDS011;1107;48.654;9.250;2022-09-09T00:48:51;7.07;;;1.80;;
2201;SDS011;1107;48.654;9.250;2022-09-09T00:51:30;2.00;;;1.40;;
2201;SDS011;1107;48.654;9.250;2022-09-09T00:54:10;4.50;;;1.23;;
2201;SDS011;1107;48.654;9.250;2022-09-09T00:56:51;1.67;;;1.30;;
2201;SDS011;1107;48.654;9.250;2022-09-09T00:59:32;2.50;;;1.40;;
2201;SDS011;1107;48.654;9.250;2022-09-09T01:02:09;2.73;;;1.80;;
2201;SDS011;1107;48.654;9.250;2022-09-09T01:04:48;7.73;;;2.13;;
2201;SDS011;1107;48.654;9.250;2022-09-09T01:07:17;5.23;;;1.60;;
2201;SDS011;1107;48.654;9.250;2022-09-09T01:09:50;1.60;;;1.40;;
2201;SDS011;1107;48.654;9.250;2022-09-09T01:12:24;1.80;;;1.50;;
2201;SDS011;1107;48.654;9.250;2022-09-09T01:14:56;1.80;;;1.50;;
2201;SDS011;1107;48.654;9.250;2022-09-09T01:17:30;3.33;;;1.50;;
2201;SDS011;1107;48.654;9.250;2022-09-09T01:20:05;5.07;;;1.50;;
2201;SDS011;1107;48.654;9.250;2022-09-09T01:22:43;4.63;;;1.50;;
2201;SDS011;1107;48.654;9.250;2022-09-09T01:25:27;1.73;;;1.50;;
2201;SDS011;1107;48.654;9.250;2022-09-09T01:27:59;1.70;;;1.50;;
2201;SDS011;1107;48.654;9.250;2022-09-09T01:30:29;2.60;;;1.50;;
2201;SDS011;1107;48.654;9.250;2022-09-09T01:32:58;1.90;;;1.60;;
2201;SDS011;1107;48.654;9.250;2022-09-09T01:35:32;2.70;;;1.50;;
2201;SDS011;1107;48.654;9.250;2022-09-09T01:38:05;2.13;;;2.00;;
2201;SDS011;1107;48.654;9.250;2022-09-09T01:40:33;2.40;;;1.80;;
2201;SDS011;1107;48.654;9.250;2022-09-09T01:43:02;2.00;;;1.60;;
2201;SDS011;1107;48.654;9.250;2022-09-09T01:45:29;2.10;;;1.47;;
2201;SDS011;1107;48.654;9.250;2022-09-09T01:47:57;2.10;;;1.90;;
2201;SDS011;1107;48.654;9.250;2022-09-09T01:50:25;5.93;;;1.63;;
2201;SDS011;1107;48.654;9.250;2022-09-09T01:52:53;1.97;;;1.40;;
2201;SDS011;1107;48.654;9.250;2022-09-09T01:55:27;1.70;;;1.60;;
2201;SDS011;1107;48.654;9.250;2022-09-09T01:58:00;3.03;;;1.70;;
2201;SDS011;1107;48.654;9.250;2022-09-09T02:00:44;3.80;;;1.50;;
2201;SDS011;1107;48.654;9.250;2022-09-09T02:03:20;4.10;;;1.90;;
2201;SDS011;1107;48.654;9.250;2022-09-09T02:05:53;2.10;;;1.77;;
2201;SDS011;1107;48.654;9.250;2022-09-09T02:08:27;1.97;;;1.80;;
2201;SDS011;1107;48.654;9.250;2022-09-09T02:11:00;1.70;;;1.60;;
2201;SDS011;1107;48.654;9.250;2022-09-09T02:13:33;2.23;;;1.40;;
2201;SDS011;1107;48.654;9.250;2022-09-09T02:16:03;2.00;;;1.90;;
2201;SDS011;1107;48.654;9.250;2022-09-09T02:18:35;2.10;;;1.63;;
2201;SDS011;1107;48.654;9.250;2022-09-09T02:21:07;2.10;;;1.70;;
2201;SDS011;1107;48.654;9.250;2022-09-09T02:23:36;1.70;;;1.50;;
2201;SDS011;1107;48.654;9.250;2022-09-09T02:26:05;6.33;;;1.53;;
2201;SDS011;1107;48.654;9.250;2022-09-09T02:28:34;3.50;;;1.60;;
2201;SDS011;1107;48.654;9.250;2022-09-09T02:31:04;2.83;;;1.93;;
2201;SDS011;1107;48.654;9.250;2022-09-09T02:33:33;1.80;;;1.47;;
2201;SDS011;1107;48.654;9.250;2022-09-09T02:36:03;3.40;;;1.30;;
2201;SDS011;1107;48.654;9.250;2022-09-09T02:38:34;4.87;;;2.27;;
2201;SDS011;1107;48.654;9.250;2022-09-09T02:41:06;3.83;;;1.53;;
2201;SDS011;1107;48.654;9.250;2022-09-09T02:43:34;2.00;;;1.60;;
2201;SDS011;1107;48.654;9.250;2022-09-09T02:46:03;1.80;;;1.50;;
2201;SDS011;1107;48.654;9.250;2022-09-09T02:48:39;2.73;;;1.57;;
2201;SDS011;1107;48.654;9.250;2022-09-09T02:51:15;3.40;;;1.57;;
2201;SDS011;1107;48.654;9.250;2022-09-09T02:53:50;11.83;;;1.90;;
2201;SDS011;1107;48.654;9.250;2022-09-09T02:56:25;3.10;;;1.80;;
2201;SDS011;1107;48.654;9.250;2022-09-09T02:58:56;7.83;;;2.40;;
2201;SDS011;1107;48.654;9.250;2022-09-09T03:01:23;4.70;;;2.13;;
2201;SDS011;1107;48.654;9.250;2022-09-09T03:03:50;2.73;;;2.27;;
2201;SDS011;1107;48.654;9.250;2022-09-09T03:06:17;3.03;;;2.33;;
2201;SDS011;1107;48.654;9.250;2022-09-09T03:08:44;6.50;;;2.33;;
2201;SDS011;1107;48.654;9.250;2022-09-09T03:11:11;4.10;;;2.20;;
2201;SDS011;1107;48.654;9.250;2022-09-09T03:13:39;8.90;;;2.63;;
2201;SDS011;1107;48.654;9.250;2022-09-09T03:16:07;5.33;;;2.20;;
2201;SDS011;1107;48.654;9.250;2022-09-09T03:18:34;2.37;;;2.17;;
2201;SDS011;1107;48.654;9.250;2022-09-09T03:21:01;2.70;;;2.50;;
2201;SDS011;1107;48.654;9.250;2022-09-09T03:23:28;2.27;;;2.00;;
2201;SDS011;1107;48.654;9.250;2022-09-09T03:25:55;14.63;;;2.77;;
2201;SDS011;1107;48.654;9.250;2022-09-09T03:28:23;2.70;;;2.10;;
2201;SDS011;1107;48.654;9.250;2022-09-09T03:30:58;4.60;;;2.30;;
2201;SDS011;1107;48.654;9.250;2022-09-09T03:33:27;2.63;;;2.40;;
2201;SDS011;1107;48.654;9.250;2022-09-09T03:35:54;4.40;;;2.10;;
2201;SDS011;1107;48.654;9.250;2022-09-09T03:38:22;4.10;;;2.80;;
2201;SDS011;1107;48.654;9.250;2022-09-09T03:40:50;3.27;;;2.97;;
2201;SDS011;1107;48.654;9.250;2022-09-09T03:43:20;3.70;;;2.23;;
2201;SDS011;1107;48.654;9.250;2022-09-09T03:45:47;2.87;;;2.27;;
2201;SDS011;1107;48.654;9.250;2022-09-09T03:48:14;5.60;;;3.03;;
2201;SDS011;1107;48.654;9.250;2022-09-09T03:50:47;5.90;;;2.50;;
2201;SDS011;1107;48.654;9.250;2022-09-09T03:53:16;3.83;;;2.70;;
2201;SDS011;1107;48.654;9.250;2022-09-09T03:55:44;7.63;;;2.73;;
2201;SDS011;1107;48.654;9.250;2022-09-09T03:58:12;2.53;;;2.33;;
2201;SDS011;1107;48.654;9.250;2022-09-09T04:00:39;6.40;;;2.40;;
2201;SDS011;1107;48.654;9.250;2022-09-09T04:03:09;3.30;;;3.00;;
2201;SDS011;1107;48.654;9.250;2022-09-09T04:05:39;2.93;;;2.37;;
2201;SDS011;1107;48.654;9.250;2022-09-09T04:08:08;2.50;;;2.30;;
2201;SDS011;1107;48.654;9.250;2022-09-09T04:10:36;5.20;;;2.40;;
2201;SDS011;1107;48.654;9.250;2022-09-09T04:13:03;2.70;;;2.50;;
2201;SDS011;1107;48.654;9.250;2022-09-09T04:15:31;6.63;;;2.57;;
2201;SDS011;1107;48.654;9.250;2022-09-09T04:17:58;2.37;;;2.10;;
2201;SDS011;1107;48.654;9.250;2022-09-09T04:20:25;4.10;;;2.57;;
2201;SDS011;1107;48.654;9.250;2022-09-09T04:22:52;3.10;;;2.40;;
2201;SDS011;1107;48.654;9.250;2022-09-09T04:25:21;7.20;;;3.10;;
2201;SDS011;1107;48.654;9.250;2022-09-09T04:27:52;2.77;;;2.57;;
2201;SDS011;1107;48.654;9.250;2022-09-09T04:30:20;7.97;;;2.67;;
2201;SDS011;1107;48.654;9.250;2022-09-09T04:32:47;3.70;;;2.60;;
2201;SDS011;1107;48.654;9.250;2022-09-09T04:35:14;3.03;;;2.80;;
2201;SDS011;1107;48.654;9.250;2022-09-09T04:37:41;5.27;;;2.47;;
2201;SDS011;1107;48.654;9.250;2022-09-09T04:40:10;3.23;;;2.27;;
2201;SDS011;1107;48.654;9.250;2022-09-09T04:42:38;2.70;;;2.50;;
2201;SDS011;1107;48.654;9.250;2022-09-09T04:45:09;4.63;;;2.07;;
2201;SDS011;1107;48.654;9.250;2022-09-09T04:47:38;3.80;;;2.47;;
2201;SDS011;1107;48.654;9.250;2022-09-09T04:50:06;4.27;;;2.10;;
2201;SDS011;1107;48.654;9.250;2022-09-09T04:52:34;2.30;;;2.00;;
2201;SDS011;1107;48.654;9.250;2022-09-09T04:55:01;3.13;;;2.03;;
2201;SDS011;1107;48.654;9.250;2022-09-09T04:57:29;2.23;;;2.03;;
2201;SDS011;1107;48.654;9.250;2022-09-09T04:59:59;2.37;;;2.17;;
2201;SDS011;1107;48.654;9.250;2022-09-09T05:02:27;2.50;;;2.30;;
2201;SDS011;1107;48.654;9.250;2022-09-09T05:04:55;2.60;;;2.40;;
2201;SDS011;1107;48.654;9.250;2022-09-09T05:07:22;7.13;;;2.23;;
2201;SDS011;1107;48.654;9.250;2022-09-09T05:09:50;2.10;;;1.70;;
2201;SDS011;1107;48.654;9.250;2022-09-09T05:12:17;5.93;;;2.17;;
2201;SDS011;1107;48.654;9.250;2022-09-09T05:14:44;2.00;;;1.90;;
2201;SDS011;1107;48.654;9.250;2022-09-09T05:17:12;3.50;;;2.10;;
2201;SDS011;1107;48.654;9.250;2022-09-09T05:19:40;4.10;;;2.60;;
2201;SDS011;1107;48.654;9.250;2022-09-09T05:22:08;2.43;;;2.10;;
2201;SDS011;1107;48.654;9.250;2022-09-09T05:24:36;4.10;;;2.10;;
2201;SDS011;1107;48.654;9.250;2022-09-09T05:27:03;2.47;;;2.27;;
2201;SDS011;1107;48.654;9.250;2022-09-09T05:29:31;5.30;;;2.23;;
2201;SDS011;1107;48.654;9.250;2022-09-09T05:31:59;2.50;;;2.30;;
2201;SDS011;1107;48.654;9.250;2022-09-09T05:34:27;2.70;;;2.20;;
2201;SDS011;1107;48.654;9.250;2022-09-09T05:36:54;2.63;;;2.43;;
2201;SDS011;1107;48.654;9.250;2022-09-09T05:39:21;2.63;;;1.90;;
2201;SDS011;1107;48.654;9.250;2022-09-09T05:41:48;1.93;;;1.70;;
2201;SDS011;1107;48.654;9.250;2022-09-09T05:44:16;2.40;;;2.10;;
2201;SDS011;1107;48.654;9.250;2022-09-09T05:46:44;2.93;;;2.07;;
2201;SDS011;1107;48.654;9.250;2022-09-09T05:49:11;4.30;;;2.17;;
2201;SDS011;1107;48.654;9.250;2022-09-09T05:51:41;4.97;;;2.27;;
2201;SDS011;1107;48.654;9.250;2022-09-09T05:54:09;3.03;;;2.00;;
2201;SDS011;1107;48.654;9.250;2022-09-09T05:56:38;2.03;;;1.80;;
2201;SDS011;1107;48.654;9.250;2022-09-09T05:59:05;2.40;;;2.20;;
2201;SDS011;1107;48.654;9.250;2022-09-09T06:01:33;3.60;;;1.80;;
2201;SDS011;1107;48.654;9.250;2022-09-09T06:04:01;2.10;;;1.90;;
2201;SDS011;1107;48.654;9.250;2022-09-09T06:06:30;3.33;;;2.17;;
2201;SDS011;1107;48.654;9.250;2022-09-09T06:09:03;3.40;;;1.97;;
2201;SDS011;1107;48.654;9.250;2022-09-09T06:11:35;3.90;;;1.90;;
2201;SDS011;1107;48.654;9.250;2022-09-09T06:14:03;4.67;;;1.80;;
2201;SDS011;1107;48.654;9.250;2022-09-09T06:16:30;4.40;;;2.50;;
2201;SDS011;1107;48.654;9.250;2022-09-09T06:18:58;5.30;;;1.90;;
2201;SDS011;1107;48.654;9.250;2022-09-09T06:21:26;2.50;;;1.90;;
2201;SDS011;1107;48.654;9.250;2022-09-09T06:23:55;2.67;;;2.17;;
2201;SDS011;1107;48.654;9.250;2022-09-09T06:26:24;3.90;;;2.13;;
2201;SDS011;1107;48.654;9.250;2022-09-09T06:28:53;2.53;;;2.33;;
2201;SDS011;1107;48.654;9.250;2022-09-09T06:31:23;3.30;;;2.13;;
2201;SDS011;1107;48.654;9.250;2022-09-09T06:33:51;2.43;;;2.23;;
2201;SDS011;1107;48.654;9.250;2022-09-09T06:36:20;4.50;;;2.07;;
2201;SDS011;1107;48.654;9.250;2022-09-09T06:38:49;2.90;;;2.70;;
2201;SDS011;1107;48.654;9.250;2022-09-09T06:41:17;3.70;;;2.23;;
2201;SDS011;1107;48.654;9.250;2022-09-09T06:43:46;5.73;;;2.13;;
2201;SDS011;1107;48.654;9.250;2022-09-09T06:46:14;2.10;;;1.83;;
2201;SDS011;1107;48.654;9.250;2022-09-09T06:48:42;2.90;;;2.13;;
2201;SDS011;1107;48.654;9.250;2022-09-09T06:51:11;3.10;;;1.77;;
2201;SDS011;1107;48.654;9.250;2022-09-09T06:53:40;2.30;;;1.97;;
2201;SDS011;1107;48.654;9.250;2022-09-09T06:56:19;7.03;;;2.03;;
2201;SDS011;1107;48.654;9.250;2022-09-09T06:58:49;2.07;;;1.90;;
2201;SDS011;1107;48.654;9.250;2022-09-09T07:01:19;3.40;;;2.13;;
2201;SDS011;1107;48.654;9.250;2022-09-09T07:03:47;5.10;;;2.03;;
2201;SDS011;1107;48.654;9.250;2022-09-09T07:06:16;2.10;;;1.90;;
2201;SDS011;1107;48.654;9.250;2022-09-09T07:08:48;7.67;;;3.03;;
2201;SDS011;1107;48.654;9.250;2022-09-09T07:11:16;2.20;;;1.83;;
2201;SDS011;1107;48.654;9.250;2022-09-09T07:13:44;2.43;;;2.23;;
2201;SDS011;1107;48.654;9.250;2022-09-09T07:16:13;3.87;;;2.00;;
2201;SDS011;1107;48.654;9.250;2022-09-09T07:18:41;1.73;;;1.63;;
2201;SDS011;1107;48.654;9.250;2022-09-09T07:21:09;2.77;;;2.00;;
2201;SDS011;1107;48.654;9.250;2022-09-09T07:23:38;2.83;;;1.90;;
2201;SDS011;1107;48.654;9.250;2022-09-09T07:26:07;2.00;;;1.73;;
2201;SDS011;1107;48.654;9.250;2022-09-09T07:28:35;2.20;;;1.87;;
2201;SDS011;1107;48.654;9.250;2022-09-09T07:31:03;2.93;;;1.57;;
2201;SDS011;1107;48.654;9.250;2022-09-09T07:33:33;2.03;;;1.80;;
2201;SDS011;1107;48.654;9.250;2022-09-09T07:36:05;2.73;;;1.90;;
2201;SDS011;1107;48.654;9.250;2022-09-09T07:38:37;5.17;;;1.80;;
2201;SDS011;1107;48.654;9.250;2022-09-09T07:41:06;3.87;;;1.60;;
2201;SDS011;1107;48.654;9.250;2022-09-09T07:43:37;2.90;;;1.77;;
2201;SDS011;1107;48.654;9.250;2022-09-09T07:46:04;2.33;;;2.13;;
2201;SDS011;1107;48.654;9.250;2022-09-09T07:48:33;2.70;;;1.40;;
2201;SDS011;1107;48.654;9.250;2022-09-09T07:51:07;2.20;;;1.90;;
2201;SDS011;1107;48.654;9.250;2022-09-09T07:53:36;2.00;;;1.53;;
2201;SDS011;1107;48.654;9.250;2022-09-09T07:56:05;2.17;;;1.67;;
2201;SDS011;1107;48.654;9.250;2022-09-09T07:58:34;1.90;;;1.63;;
2201;SDS011;1107;48.654;9.250;2022-09-09T08:01:05;1.93;;;1.73;;
2201;SDS011;1107;48.654;9.250;2022-09-09T08:03:36;2.30;;;2.10;;
2201;SDS011;1107;48.654;9.250;2022-09-09T08:06:03;2.00;;;1.80;;
2201;SDS011;1107;48.654;9.250;2022-09-09T08:08:33;2.17;;;1.97;;
2201;SDS011;1107;48.654;9.250;2022-09-09T08:11:04;1.97;;;1.60;;
2201;SDS011;1107;48.654;9.250;2022-09-09T08:13:32;1.73;;;1.33;;
2201;SDS011;1107;48.654;9.250;2022-09-09T08:16:04;6.03;;;1.97;;
2201;SDS011;1107;48.654;9.250;2022-09-09T08:18:32;2.00;;;1.50;;
2201;SDS011;1107;48.654;9.250;2022-09-09T08:21:06;1.97;;;1.77;;
2201;SDS011;1107;48.654;9.250;2022-09-09T08:23:36;1.70;;;1.33;;
2201;SDS011;1107;48.654;9.250;2022-09-09T08:26:06;1.80;;;1.57;;
2201;SDS011;1107;48.654;9.250;2022-09-09T08:28:36;2.40;;;2.07;;
2201;SDS011;1107;48.654;9.250;2022-09-09T08:31:05;2.20;;;2.00;;
2201;SDS011;1107;48.654;9.250;2022-09-09T08:33:36;2.90;;;1.87;;
2201;SDS011;1107;48.654;9.250;2022-09-09T08:36:06;5.00;;;1.73;;
2201;SDS011;1107;48.654;9.250;2022-09-09T08:38:35;2.43;;;1.70;;
2201;SDS011;1107;48.654;9.250;2022-09-09T08:44:30;1.80;;;1.50;;
2201;SDS011;1107;48.654;9.250;2022-09-09T08:47:05;1.90;;;1.70;;
2201;SDS011;1107;48.654;9.250;2022-09-09T08:52:32;3.20;;;1.80;;
2201;SDS011;1107;48.654;9.250;2022-09-09T08:55:10;2.33;;;2.13;;
2201;SDS011;1107;48.654;9.250;2022-09-09T08:57:46;1.90;;;1.70;;
2201;SDS011;1107;48.654;9.250;2022-09-09T09:00:14;2.50;;;1.60;;
2201;SDS011;1107;48.654;9.250;2022-09-09T09:02:42;1.90;;;1.70;;
2201;SDS011;1107;48.654;9.250;2022-09-09T09:05:22;4.07;;;1.47;;
2201;SDS011;1107;48.654;9.250;2022-09-09T09:07:59;6.00;;;1.57;;
2201;SDS011;1107;48.654;9.250;2022-09-09T09:10:36;1.70;;;1.40;;
2201;SDS011;1107;48.654;9.250;2022-09-09T09:13:13;4.07;;;1.40;;
2201;SDS011;1107;48.654;9.250;2022-09-09T09:15:44;2.10;;;1.90;;
2201;SDS011;1107;48.654;9.250;2022-09-09T09:18:15;4.10;;;1.80;;
2201;SDS011;1107;48.654;9.250;2022-09-09T09:20:47;2.50;;;2.30;;
2201;SDS011;1107;48.654;9.250;2022-09-09T09:23:22;2.70;;;1.80;;
2201;SDS011;1107;48.654;9.250;2022-09-09T09:25:52;1.83;;;1.70;;
2201;SDS011;1107;48.654;9.250;2022-09-09T09:28:25;2.00;;;1.80;;
2201;SDS011;1107;48.654;9.250;2022-09-09T09:30:55;1.90;;;1.60;;
2201;SDS011;1107;48.654;9.250;2022-09-09T09:33:27;2.00;;;1.70;;
2201;SDS011;1107;48.654;9.250;2022-09-09T09:35:57;4.07;;;1.77;;
2201;SDS011;1107;48.654;9.250;2022-09-09T09:38:27;3.35;;;2.05;;
2201;SDS011;1107;48.654;9.250;2022-09-09T09:40:55;2.27;;;1.70;;
2201;SDS011;1107;48.654;9.250;2022-09-09T09:43:24;1.90;;;1.00;;
2201;SDS011;1107;48.654;9.250;2022-09-09T09:45:53;1.50;;;1.00;;
2201;SDS011;1107;48.654;9.250;2022-09-09T09:48:23;2.10;;;1.03;;
2201;SDS011;1107;48.654;9.250;2022-09-09T09:50:50;1.50;;;1.00;;
2201;SDS011;1107;48.654;9.250;2022-09-09T09:53:20;1.60;;;1.13;;
2201;SDS011;1107;48.654;9.250;2022-09-09T09:55:53;1.70;;;0.90;;
2201;SDS011;1107;48.654;9.250;2022-09-09T09:58:23;1.53;;;0.70;;
2201;SDS011;1107;48.654;9.250;2022-09-09T10:00:53;2.03;;;1.10;;
2201;SDS011;1107;48.654;9.250;2022-09-09T10:03:24;1.60;;;1.10;;
2201;SDS011;1107;48.654;9.250;2022-09-09T10:05:54;1.67;;;1.00;;
2201;SDS011;1107;48.654;9.250;2022-09-09T10:08:24;1.50;;;0.90;;
2201;SDS011;1107;48.654;9.250;2022-09-09T10:13:54;2.00;;;1.30;;
2201;SDS011;1107;48.654;9.250;2022-09-09T10:16:35;2.47;;;1.50;;
2201;SDS011;1107;48.654;9.250;2022-09-09T10:19:13;2.00;;;1.60;;
2201;SDS011;1107;48.654;9.250;2022-09-09T10:21:48;2.00;;;1.60;;
2201;SDS011;1107;48.654;9.250;2022-09-09T10:24:53;2.53;;;1.33;;
2201;SDS011;1107;48.654;9.250;2022-09-09T10:27:50;1.90;;;1.23;;
2201;SDS011;1107;48.654;9.250;2022-09-09T10:30:29;2.30;;;1.30;;
2201;SDS011;1107;48.654;9.250;2022-09-09T10:33:04;6.10;;;1.40;;
2201;SDS011;1107;48.654;9.250;2022-09-09T10:35:37;1.60;;;1.00;;
2201;SDS011;1107;48.654;9.250;2022-09-09T10:38:13;2.07;;;1.53;;
2201;SDS011;1107;48.654;9.250;2022-09-09T10:40:43;2.37;;;1.20;;
2201;SDS011;1107;48.654;9.250;2022-09-09T10:43:42;2.47;;;1.40;;
2201;SDS011;1107;48.654;9.250;2022-09-09T10:46:22;2.93;;;1.40;;
2201;SDS011;1107;48.654;9.250;2022-09-09T10:49:03;2.00;;;1.20;;
2201;SDS011;1107;48.654;9.250;2022-09-09T10:51:40;2.03;;;1.33;;
2201;SDS011;1107;48.654;9.250;2022-09-09T10:54:15;1.47;;;1.00;;
2201;SDS011;1107;48.654;9.250;2022-09-09T10:56:52;2.37;;;1.03;;
2201;SDS011;1107;48.654;9.250;2022-09-09T10:59:25;3.90;;;1.60;;
2201;SDS011;1107;48.654;9.250;2022-09-09T11:01:56;1.73;;;1.20;;
2201;SDS011;1107;48.654;9.250;2022-09-09T11:04:29;1.90;;;1.20;;
2201;SDS011;1107;48.654;9.250;2022-09-09T11:07:00;3.10;;;1.50;;
2201;SDS011;1107;48.654;9.250;2022-09-09T11:09:35;2.10;;;1.23;;
2201;SDS011;1107;48.654;9.250;2022-09-09T11:12:07;2.00;;;1.30;;
2201;SDS011;1107;48.654;9.250;2022-09-09T11:14:41;2.00;;;1.60;;
2201;SDS011;1107;48.654;9.250;2022-09-09T11:17:10;1.77;;;1.33;;
2201;SDS011;1107;48.654;9.250;2022-09-09T11:19:40;3.10;;;1.30;;
2201;SDS011;1107;48.654;9.250;2022-09-09T11:22:14;5.87;;;2.07;;
2201;SDS011;1107;48.654;9.250;2022-09-09T11:24:47;1.90;;;1.40;;
2201;SDS011;1107;48.654;9.250;2022-09-09T11:27:18;1.80;;;1.40;;
2201;SDS011;1107;48.654;9.250;2022-09-09T11:32:48;1.50;;;1.10;;
2201;SDS011;1107;48.654;9.250;2022-09-09T11:35:42;2.13;;;1.30;;
2201;SDS011;1107;48.654;9.250;2022-09-09T11:38:19;2.63;;;1.30;;
2201;SDS011;1107;48.654;9.250;2022-09-09T11:40:55;1.73;;;1.00;;
2201;SDS011;1107;48.654;9.250;2022-09-09T11:43:30;2.60;;;1.43;;
2201;SDS011;1107;48.654;9.250;2022-09-09T11:46:02;1.80;;;1.30;;
2201;SDS011;1107;48.654;9.250;2022-09-09T11:48:31;1.87;;;1.20;;
2201;SDS011;1107;48.654;9.250;2022-09-09T11:51:01;4.03;;;1.10;;
2201;SDS011;1107;48.654;9.250;2022-09-09T11:53:32;2.37;;;1.33;;
2201;SDS011;1107;48.654;9.250;2022-09-09T11:56:01;1.90;;;0.90;;
2201;SDS011;1107;48.654;9.250;2022-09-09T12:01:29;1.50;;;0.80;;
2201;SDS011;1107;48.654;9.250;2022-09-09T12:07:00;1.40;;;0.70;;
2201;SDS011;1107;48.654;9.250;2022-09-09T12:09:41;1.93;;;0.70;;
2201;SDS011;1107;48.654;9.250;2022-09-09T12:12:23;1.60;;;0.80;;
2201;SDS011;1107;48.654;9.250;2022-09-09T12:14:59;1.40;;;0.67;;
2201;SDS011;1107;48.654;9.250;2022-09-09T12:17:31;1.47;;;0.70;;
2201;SDS011;1107;48.654;9.250;2022-09-09T12:20:12;1.40;;;0.70;;
2201;SDS011;1107;48.654;9.250;2022-09-09T12:22:45;2.73;;;0.90;;
2201;SDS011;1107;48.654;9.250;2022-09-09T12:25:44;2.10;;;0.87;;
2201;SDS011;1107;48.654;9.250;2022-09-09T12:28:20;1.43;;;0.80;;
2201;SDS011;1107;48.654;9.250;2022-09-09T12:30:50;2.53;;;0.70;;
2201;SDS011;1107;48.654;9.250;2022-09-09T12:33:32;1.40;;;0.70;;
2201;SDS011;1107;48.654;9.250;2022-09-09T12:36:01;1.50;;;0.77;;
2201;SDS011;1107;48.654;9.250;2022-09-09T12:38:31;1.40;;;0.67;;
2201;SDS011;1107;48.654;9.250;2022-09-09T12:41:01;1.60;;;0.70;;
2201;SDS011;1107;48.654;9.250;2022-09-09T12:43:29;2.30;;;0.70;;
2201;SDS011;1107;48.654;9.250;2022-09-09T12:45:57;1.60;;;0.83;;
2201;SDS011;1107;48.654;9.250;2022-09-09T12:48:33;1.80;;;0.90;;
2201;SDS011;1107;48.654;9.250;2022-09-09T12:51:02;1.60;;;0.70;;
2201;SDS011;1107;48.654;9.250;2022-09-09T12:53:31;2.37;;;0.80;;
2201;SDS011;1107;48.654;9.250;2022-09-09T12:56:02;1.70;;;0.93;;
2201;SDS011;1107;48.654;9.250;2022-09-09T12:58:33;2.40;;;0.93;;
2201;SDS011;1107;48.654;9.250;2022-09-09T13:01:03;2.20;;;0.93;;
2201;SDS011;1107;48.654;9.250;2022-09-09T13:03:33;1.80;;;0.90;;
2201;SDS011;1107;48.654;9.250;2022-09-09T13:06:10;1.73;;;1.10;;
2201;SDS011;1107;48.654;9.250;2022-09-09T13:08:39;2.60;;;1.00;;
2201;SDS011;1107;48.654;9.250;2022-09-09T13:11:07;1.93;;;0.90;;
2201;SDS011;1107;48.654;9.250;2022-09-09T13:13:39;1.60;;;0.90;;
2201;SDS011;1107;48.654;9.250;2022-09-09T13:16:18;2.90;;;1.07;;
2201;SDS011;1107;48.654;9.250;2022-09-09T13:18:49;1.87;;;1.07;;
2201;SDS011;1107;48.654;9.250;2022-09-09T13:21:17;2.30;;;0.87;;
2201;SDS011;1107;48.654;9.250;2022-09-09T13:23:48;2.30;;;1.00;;
2201;SDS011;1107;48.654;9.250;2022-09-09T13:26:20;2.97;;;0.97;;
2201;SDS011;1107;48.654;9.250;2022-09-09T13:28:49;2.57;;;1.10;;
2201;SDS011;1107;48.654;9.250;2022-09-09T13:31:21;1.70;;;0.90;;
2201;SDS011;1107;48.654;9.250;2022-09-09T13:33:51;2.23;;;0.90;;
2201;SDS011;1107;48.654;9.250;2022-09-09T13:36:26;1.60;;;0.90;;
2201;SDS011;1107;48.654;9.250;2022-09-09T13:38:56;5.00;;;1.43;;
2201;SDS011;1107;48.654;9.250;2022-09-09T13:41:34;1.90;;;0.90;;
2201;SDS011;1107;48.654;9.250;2022-09-09T13:44:14;2.10;;;0.90;;
2201;SDS011;1107;48.654;9.250;2022-09-09T13:46:58;1.77;;;1.10;;
2201;SDS011;1107;48.654;9.250;2022-09-09T13:49:29;2.70;;;1.33;;
2201;SDS011;1107;48.654;9.250;2022-09-09T13:52:04;2.60;;;1.43;;
2201;SDS011;1107;48.654;9.250;2022-09-09T13:54:36;1.70;;;1.10;;
2201;SDS011;1107;48.654;9.250;2022-09-09T13:57:04;1.60;;;0.87;;
2201;SDS011;1107;48.654;9.250;2022-09-09T13:59:31;1.90;;;0.80;;
2201;SDS011;1107;48.654;9.250;2022-09-09T14:01:59;2.07;;;0.90;;
2201;SDS011;1107;48.654;9.250;2022-09-09T14:04:26;1.80;;;1.03;;
2201;SDS011;1107;48.654;9.250;2022-09-09T14:06:55;3.50;;;1.10;;
2201;SDS011;1107;48.654;9.250;2022-09-09T14:09:23;2.30;;;1.10;;
2201;SDS011;1107;48.654;9.250;2022-09-09T14:11:50;2.40;;;0.80;;
2201;SDS011;1107;48.654;9.250;2022-09-09T14:14:17;5.40;;;0.90;;
2201;SDS011;1107;48.654;9.250;2022-09-09T14:16:44;4.03;;;1.33;;
2201;SDS011;1107;48.654;9.250;2022-09-09T14:19:11;1.60;;;0.93;;
2201;SDS011;1107;48.654;9.250;2022-09-09T14:21:40;1.80;;;1.07;;
2201;SDS011;1107;48.654;9.250;2022-09-09T14:24:07;2.43;;;2.03;;
2201;SDS011;1107;48.654;9.250;2022-09-09T14:26:34;3.27;;;3.07;;
2201;SDS011;1107;48.654;9.250;2022-09-09T14:29:02;5.10;;;4.80;;
2201;SDS011;1107;48.654;9.250;2022-09-09T14:31:29;9.97;;;9.30;;
2201;SDS011;1107;48.654;9.250;2022-09-09T14:33:56;1.87;;;0.93;;
2201;SDS011;1107;48.654;9.250;2022-09-09T14:36:24;3.25;;;1.00;;
2201;SDS011;1107;48.654;9.250;2022-09-09T14:38:52;1.57;;;0.90;;
2201;SDS011;1107;48.654;9.250;2022-09-09T14:41:19;1.47;;;0.70;;
2201;SDS011;1107;48.654;9.250;2022-09-09T14:43:48;1.60;;;0.90;;
2201;SDS011;1107;48.654;9.250;2022-09-09T14:46:17;2.07;;;0.80;;
2201;SDS011;1107;48.654;9.250;2022-09-09T14:48:45;2.13;;;1.20;;
2201;SDS011;1107;48.654;9.250;2022-09-09T14:51:14;1.60;;;0.70;;
2201;SDS011;1107;48.654;9.250;2022-09-09T14:53:43;1.40;;;0.80;;
2201;SDS011;1107;48.654;9.250;2022-09-09T14:56:12;2.27;;;0.90;;
2201;SDS011;1107;48.654;9.250;2022-09-09T14:58:40;2.10;;;1.00;;
2201;SDS011;1107;48.654;9.250;2022-09-09T15:01:09;1.70;;;0.97;;
2201;SDS011;1107;48.654;9.250;2022-09-09T15:03:37;3.70;;;1.20;;
2201;SDS011;1107;48.654;9.250;2022-09-09T15:06:06;1.50;;;0.70;;
2201;SDS011;1107;48.654;9.250;2022-09-09T15:08:34;1.60;;;1.03;;
2201;SDS011;1107;48.654;9.250;2022-09-09T15:11:02;1.40;;;0.70;;
2201;SDS011;1107;48.654;9.250;2022-09-09T15:13:32;1.80;;;0.83;;
2201;SDS011;1107;48.654;9.250;2022-09-09T15:16:03;1.50;;;0.80;;
2201;SDS011;1107;48.654;9.250;2022-09-09T15:18:31;1.50;;;0.70;;
2201;SDS011;1107;48.654;9.250;2022-09-09T15:20:58;1.70;;;0.70;;
2201;SDS011;1107;48.654;9.250;2022-09-09T15:23:26;8.07;;;1.00;;
2201;SDS011;1107;48.654;9.250;2022-09-09T15:25:54;1.33;;;0.60;;
2201;SDS011;1107;48.654;9.250;2022-09-09T15:28:22;1.83;;;1.03;;
2201;SDS011;1107;48.654;9.250;2022-09-09T15:30:51;1.83;;;0.70;;
2201;SDS011;1107;48.654;9.250;2022-09-09T15:33:19;2.10;;;1.50;;
2201;SDS011;1107;48.654;9.250;2022-09-09T15:35:47;2.10;;;1.27;;
2201;SDS011;1107;48.654;9.250;2022-09-09T15:38:14;1.60;;;0.83;;
2201;SDS011;1107;48.654;9.250;2022-09-09T15:40:42;2.20;;;1.30;;
2201;SDS011;1107;48.654;9.250;2022-09-09T15:43:09;1.77;;;1.17;;
2201;SDS011;1107;48.654;9.250;2022-09-09T15:45:38;3.03;;;0.80;;
2201;SDS011;1107;48.654;9.250;2022-09-09T15:48:06;5.23;;;1.10;;
2201;SDS011;1107;48.654;9.250;2022-09-09T15:50:33;1.97;;;0.93;;
2201;SDS011;1107;48.654;9.250;2022-09-09T15:53:00;2.63;;;1.00;;
2201;SDS011;1107;48.654;9.250;2022-09-09T15:55:28;2.50;;;0.97;;